createdAt,value
2023-01-17T00:00:46.140Z,968.29
2023-01-17T00:01:46.137Z,968.31
2023-01-17T00:02:46.168Z,968.31
2023-01-17T00:03:46.131Z,968.33
2023-01-17T00:04:46.096Z,968.32
2023-01-17T00:05:46.201Z,968.29
2023-01-17T00:06:46.081Z,968.34
2023-01-17T00:07:46.092Z,968.35
2023-01-17T00:08:46.055Z,968.38
2023-01-17T00:09:46.051Z,968.27
2023-01-17T00:10:46.050Z,968.37
2023-01-17T00:11:46.021Z,968.42
2023-01-17T00:12:46.030Z,968.41
2023-01-17T00:13:46.029Z,968.43
2023-01-17T00:14:46.001Z,968.47
2023-01-17T00:15:46.111Z,968.47
2023-01-17T00:16:45.983Z,968.47
2023-01-17T00:17:45.976Z,968.48
2023-01-17T00:18:45.978Z,968.50
2023-01-17T00:19:45.934Z,968.52
2023-01-17T00:20:45.936Z,968.53
2023-01-17T00:21:45.931Z,968.56
2023-01-17T00:22:45.906Z,968.54
2023-01-17T00:23:45.923Z,968.55
2023-01-17T00:24:45.912Z,968.56
2023-01-17T00:25:45.893Z,968.57
2023-01-17T00:26:45.874Z,968.59
2023-01-17T00:27:45.981Z,968.61
2023-01-17T00:28:45.893Z,968.59
2023-01-17T00:29:45.863Z,968.52
2023-01-17T00:30:45.878Z,968.56
2023-01-17T00:31:45.863Z,968.58
2023-01-17T00:32:45.826Z,968.59
2023-01-17T00:33:45.836Z,968.58
2023-01-17T00:34:45.792Z,968.58
2023-01-17T00:35:45.812Z,968.59
2023-01-17T00:36:45.792Z,968.63
2023-01-17T00:37:45.784Z,968.62
2023-01-17T00:38:45.762Z,968.65
2023-01-17T00:39:45.760Z,968.64
2023-01-17T00:40:45.732Z,968.67
2023-01-17T00:41:45.735Z,968.66
2023-01-17T00:42:45.737Z,968.66
2023-01-17T00:43:45.733Z,968.65
2023-01-17T00:44:45.703Z,968.66
2023-01-17T00:45:45.701Z,968.68
2023-01-17T00:46:45.761Z,968.65
2023-01-17T00:47:45.676Z,968.70
2023-01-17T00:48:45.678Z,968.71
2023-01-17T00:49:45.656Z,968.72
2023-01-17T00:50:45.633Z,968.74
2023-01-17T00:51:45.636Z,968.76
2023-01-17T00:52:45.629Z,968.79
2023-01-17T00:53:45.626Z,968.78
2023-01-17T00:54:45.584Z,968.80
2023-01-17T00:55:45.613Z,968.80
2023-01-17T00:56:45.604Z,968.83
2023-01-17T00:57:45.594Z,968.84
2023-01-17T00:58:45.560Z,968.88
2023-01-17T00:59:45.578Z,968.92
2023-01-17T01:00:45.644Z,968.91
2023-01-17T01:01:45.724Z,968.91
2023-01-17T01:02:45.622Z,968.96
2023-01-17T01:03:45.540Z,968.92
2023-01-17T01:04:45.498Z,969.02
2023-01-17T01:05:45.516Z,968.95
2023-01-17T01:06:45.620Z,968.93
2023-01-17T01:07:45.520Z,968.96
2023-01-17T01:08:45.453Z,968.95
2023-01-17T01:09:45.452Z,969.00
2023-01-17T01:10:45.457Z,968.98
2023-01-17T01:11:45.415Z,969.01
2023-01-17T01:12:45.434Z,969.01
2023-01-17T01:13:45.409Z,969.04
2023-01-17T01:14:45.384Z,969.04
2023-01-17T01:15:45.438Z,969.08
2023-01-17T01:16:45.385Z,969.06
2023-01-17T01:17:45.399Z,969.06
2023-01-17T01:18:45.355Z,969.09
2023-01-17T01:19:45.380Z,969.15
2023-01-17T01:20:45.329Z,969.17
2023-01-17T01:21:45.386Z,969.16
2023-01-17T01:22:45.315Z,969.19
2023-01-17T01:23:45.303Z,969.19
2023-01-17T01:24:45.285Z,969.16
2023-01-17T01:25:45.286Z,969.24
2023-01-17T01:26:45.291Z,969.19
2023-01-17T01:27:45.253Z,969.22
2023-01-17T01:28:45.237Z,969.27
2023-01-17T01:29:45.238Z,969.32
2023-01-17T01:30:45.251Z,969.34
2023-01-17T01:31:45.284Z,969.36
2023-01-17T01:32:45.226Z,969.41
2023-01-17T01:33:45.206Z,969.35
2023-01-17T01:34:45.183Z,969.45
2023-01-17T01:35:45.171Z,969.49
2023-01-17T01:36:45.177Z,969.51
2023-01-17T01:37:45.171Z,969.48
2023-01-17T01:38:45.160Z,969.57
2023-01-17T01:39:45.144Z,969.50
2023-01-17T01:40:45.122Z,969.56
2023-01-17T01:41:45.159Z,969.58
2023-01-17T01:42:45.117Z,969.55
2023-01-17T01:43:45.105Z,969.60
2023-01-17T01:44:45.085Z,969.68
2023-01-17T01:45:45.091Z,969.67
2023-01-17T01:46:45.075Z,969.67
2023-01-17T01:47:45.081Z,969.71
2023-01-17T01:48:45.042Z,969.71
2023-01-17T01:49:45.049Z,969.67
2023-01-17T01:50:45.013Z,969.75
2023-01-17T01:51:45.051Z,969.80
2023-01-17T01:52:45.008Z,969.79
2023-01-17T01:53:45.014Z,969.86
2023-01-17T01:54:44.972Z,969.87
2023-01-17T01:55:44.977Z,969.88
2023-01-17T01:56:45.016Z,969.84
2023-01-17T01:57:44.979Z,969.94
2023-01-17T01:58:44.947Z,969.97
2023-01-17T01:59:44.924Z,969.95
2023-01-17T02:00:44.998Z,969.93
2023-01-17T02:01:45.050Z,969.98
2023-01-17T02:02:44.920Z,970.04
2023-01-17T02:03:44.925Z,970.05
2023-01-17T02:04:45.082Z,970.04
2023-01-17T02:05:44.879Z,970.04
2023-01-17T02:06:44.851Z,970.07
2023-01-17T02:07:44.851Z,970.08
2023-01-17T02:08:44.896Z,970.09
2023-01-17T02:09:44.846Z,970.04
2023-01-17T02:10:44.864Z,970.13
2023-01-17T02:11:44.809Z,970.14
2023-01-17T02:12:44.819Z,970.13
2023-01-17T02:13:44.788Z,970.18
2023-01-17T02:14:44.781Z,970.22
2023-01-17T02:15:44.775Z,970.24
2023-01-17T02:16:44.804Z,970.18
2023-01-17T02:17:44.761Z,970.23
2023-01-17T02:18:44.728Z,970.34
2023-01-17T02:19:44.749Z,970.39
2023-01-17T02:20:44.723Z,970.40
2023-01-17T02:21:44.770Z,970.43
2023-01-17T02:22:44.701Z,970.50
2023-01-17T02:23:44.692Z,970.50
2023-01-17T02:24:44.679Z,970.48
2023-01-17T02:25:44.699Z,970.53
2023-01-17T02:26:44.654Z,970.54
2023-01-17T02:27:44.663Z,970.54
2023-01-17T02:28:44.745Z,970.56
2023-01-17T02:29:44.664Z,970.56
2023-01-17T02:30:44.618Z,970.63
2023-01-17T02:31:44.646Z,970.58
2023-01-17T02:32:44.601Z,970.56
2023-01-17T02:33:44.603Z,970.63
2023-01-17T02:34:44.581Z,970.69
2023-01-17T02:35:44.560Z,970.74
2023-01-17T02:36:44.559Z,970.75
2023-01-17T02:37:44.504Z,970.77
2023-01-17T02:38:44.519Z,970.77
2023-01-17T02:39:44.523Z,970.83
2023-01-17T02:40:44.511Z,970.83
2023-01-17T02:41:44.502Z,970.83
2023-01-17T02:42:44.484Z,970.84
2023-01-17T02:43:44.486Z,970.85
2023-01-17T02:44:44.477Z,970.84
2023-01-17T02:45:44.484Z,970.88
2023-01-17T02:46:44.607Z,970.96
2023-01-17T02:47:44.513Z,970.92
2023-01-17T02:48:44.427Z,970.97
2023-01-17T02:49:44.451Z,971.00
2023-01-17T02:50:44.420Z,971.01
2023-01-17T02:51:44.430Z,971.03
2023-01-17T02:52:44.380Z,971.07
2023-01-17T02:53:44.375Z,971.06
2023-01-17T02:54:44.355Z,971.06
2023-01-17T02:55:44.373Z,971.11
2023-01-17T02:56:44.352Z,971.17
2023-01-17T02:57:44.339Z,971.24
2023-01-17T02:58:44.321Z,971.16
2023-01-17T02:59:44.326Z,971.22
2023-01-17T03:00:44.524Z,971.26
2023-01-17T03:01:44.463Z,971.26
2023-01-17T03:02:44.308Z,971.28
2023-01-17T03:03:44.282Z,971.25
2023-01-17T03:04:44.265Z,971.33
2023-01-17T03:05:44.258Z,971.38
2023-01-17T03:06:44.248Z,971.39
2023-01-17T03:07:44.339Z,971.38
2023-01-17T03:08:44.225Z,971.44
2023-01-17T03:09:44.224Z,971.44
2023-01-17T03:10:44.250Z,971.47
2023-01-17T03:11:44.195Z,971.46
2023-01-17T03:12:44.172Z,971.48
2023-01-17T03:13:44.179Z,971.52
2023-01-17T03:14:44.155Z,971.53
2023-01-17T03:15:44.163Z,971.54
2023-01-17T03:16:44.197Z,971.53
2023-01-17T03:17:44.138Z,971.57
2023-01-17T03:18:44.119Z,971.56
2023-01-17T03:19:44.105Z,971.59
2023-01-17T03:20:44.098Z,971.62
2023-01-17T03:21:44.104Z,971.64
2023-01-17T03:22:44.082Z,971.66
2023-01-17T03:23:44.072Z,971.67
2023-01-17T03:24:44.131Z,971.64
2023-01-17T03:25:44.067Z,971.68
2023-01-17T03:26:44.049Z,971.66
2023-01-17T03:27:44.039Z,971.67
2023-01-17T03:28:44.011Z,971.69
2023-01-17T03:29:44.056Z,971.75
2023-01-17T03:30:44.107Z,971.72
2023-01-17T03:31:44.005Z,971.72
2023-01-17T03:32:44.045Z,971.79
2023-01-17T03:33:44.004Z,971.78
2023-01-17T03:34:43.972Z,971.81
2023-01-17T03:35:43.973Z,971.81
2023-01-17T03:36:43.945Z,971.87
2023-01-17T03:37:43.970Z,971.88
2023-01-17T03:38:43.924Z,971.90
2023-01-17T03:39:43.918Z,971.94
2023-01-17T03:40:43.896Z,971.95
2023-01-17T03:41:43.890Z,971.93
2023-01-17T03:42:43.869Z,971.96
2023-01-17T03:43:43.862Z,971.97
2023-01-17T03:44:43.862Z,971.99
2023-01-17T03:45:43.913Z,972.02
2023-01-17T03:46:43.837Z,972.04
2023-01-17T03:47:43.854Z,972.06
2023-01-17T03:48:43.810Z,972.09
2023-01-17T03:49:43.827Z,972.12
2023-01-17T03:50:43.797Z,972.14
2023-01-17T03:51:43.791Z,972.16
2023-01-17T03:52:43.791Z,972.20
2023-01-17T03:53:43.792Z,972.20
2023-01-17T03:54:43.770Z,972.21
2023-01-17T03:55:43.745Z,972.21
2023-01-17T03:56:43.787Z,972.22
2023-01-17T03:57:43.784Z,972.20
2023-01-17T03:58:43.714Z,972.21
2023-01-17T03:59:43.720Z,972.23
2023-01-17T04:00:43.683Z,972.25
2023-01-17T04:01:43.758Z,972.31
2023-01-17T04:02:43.739Z,972.32
2023-01-17T04:03:44.122Z,972.34
2023-01-17T04:04:43.652Z,972.36
2023-01-17T04:05:43.629Z,972.38
2023-01-17T04:06:43.677Z,972.35
2023-01-17T04:07:43.652Z,972.38
2023-01-17T04:08:43.641Z,972.42
2023-01-17T04:09:43.640Z,972.43
2023-01-17T04:10:43.595Z,972.47
2023-01-17T04:11:43.570Z,972.47
2023-01-17T04:12:43.613Z,972.48
2023-01-17T04:13:43.568Z,972.49
2023-01-17T04:14:43.565Z,972.47
2023-01-17T04:15:43.861Z,972.50
2023-01-17T04:16:46.254Z,972.52
2023-01-17T04:17:43.511Z,972.53
2023-01-17T04:18:43.606Z,972.55
2023-01-17T04:19:43.498Z,972.57
2023-01-17T04:20:43.510Z,972.55
2023-01-17T04:21:43.469Z,972.57
2023-01-17T04:22:43.488Z,972.57
2023-01-17T04:23:43.445Z,972.58
2023-01-17T04:24:43.454Z,972.60
2023-01-17T04:25:43.431Z,972.60
2023-01-17T04:26:43.441Z,972.61
2023-01-17T04:27:43.411Z,972.64
2023-01-17T04:28:43.409Z,972.63
2023-01-17T04:29:45.877Z,972.64
2023-01-17T04:30:43.504Z,972.68
2023-01-17T04:31:43.472Z,972.66
2023-01-17T04:32:43.390Z,972.68
2023-01-17T04:33:43.353Z,972.67
2023-01-17T04:34:43.376Z,972.68
2023-01-17T04:35:43.338Z,972.68
2023-01-17T04:36:43.324Z,972.67
2023-01-17T04:37:43.317Z,972.67
2023-01-17T04:38:43.329Z,972.67
2023-01-17T04:39:43.283Z,972.70
2023-01-17T04:40:43.298Z,972.68
2023-01-17T04:41:43.270Z,972.70
2023-01-17T04:42:43.251Z,972.74
2023-01-17T04:43:43.267Z,972.76
2023-01-17T04:44:43.248Z,972.72
2023-01-17T04:45:43.255Z,972.77
2023-01-17T04:46:43.233Z,972.77
2023-01-17T04:47:43.228Z,972.79
2023-01-17T04:48:43.210Z,972.79
2023-01-17T04:49:44.175Z,972.84
2023-01-17T04:50:43.215Z,972.82
2023-01-17T04:51:43.174Z,972.83
2023-01-17T04:52:43.165Z,972.81
2023-01-17T04:53:43.176Z,972.87
2023-01-17T04:54:43.146Z,972.86
2023-01-17T04:55:43.150Z,972.86
2023-01-17T04:56:43.125Z,972.87
2023-01-17T04:57:43.119Z,972.90
2023-01-17T04:58:43.107Z,972.89
2023-01-17T04:59:43.090Z,972.88
2023-01-17T05:00:43.087Z,972.90
2023-01-17T05:01:43.077Z,972.91
2023-01-17T05:02:43.123Z,972.89
2023-01-17T05:03:43.036Z,972.87
2023-01-17T05:04:43.044Z,972.96
2023-01-17T05:05:43.039Z,972.87
2023-01-17T05:06:43.042Z,972.89
2023-01-17T05:07:43.034Z,972.91
2023-01-17T05:08:43.001Z,972.91
2023-01-17T05:09:42.982Z,972.96
2023-01-17T05:10:43.020Z,972.98
2023-01-17T05:11:42.959Z,973.02
2023-01-17T05:12:42.944Z,973.03
2023-01-17T05:13:42.943Z,973.05
2023-01-17T05:14:42.935Z,973.10
2023-01-17T05:15:42.935Z,973.09
2023-01-17T05:16:42.936Z,973.12
2023-01-17T05:17:42.897Z,973.14
2023-01-17T05:18:42.901Z,973.15
2023-01-17T05:19:42.880Z,973.16
2023-01-17T05:20:42.881Z,973.15
2023-01-17T05:21:42.995Z,973.21
2023-01-17T05:22:42.877Z,973.21
2023-01-17T05:23:42.848Z,973.24
2023-01-17T05:24:42.857Z,973.25
2023-01-17T05:25:42.817Z,973.25
2023-01-17T05:26:42.833Z,973.23
2023-01-17T05:27:42.866Z,973.30
2023-01-17T05:28:42.791Z,973.25
2023-01-17T05:29:42.785Z,973.26
2023-01-17T05:30:42.863Z,973.30
2023-01-17T05:31:42.753Z,973.31
2023-01-17T05:32:42.770Z,973.35
2023-01-17T05:33:42.739Z,973.32
2023-01-17T05:34:42.761Z,973.36
2023-01-17T05:35:42.724Z,973.35
2023-01-17T05:36:42.723Z,973.33
2023-01-17T05:37:42.736Z,973.33
2023-01-17T05:38:42.709Z,973.30
2023-01-17T05:39:42.669Z,973.32
2023-01-17T05:40:42.680Z,973.36
2023-01-17T05:41:42.682Z,973.41
2023-01-17T05:42:42.688Z,973.44
2023-01-17T05:43:42.639Z,973.46
2023-01-17T05:44:42.642Z,973.49
2023-01-17T05:45:42.606Z,973.50
2023-01-17T05:46:42.624Z,973.52
2023-01-17T05:47:42.606Z,973.52
2023-01-17T05:48:42.600Z,973.55
2023-01-17T05:49:45.158Z,973.58
2023-01-17T05:50:42.634Z,973.59
2023-01-17T05:51:42.563Z,973.63
2023-01-17T05:52:42.604Z,973.60
2023-01-17T05:53:42.565Z,973.63
2023-01-17T05:54:42.554Z,973.64
2023-01-17T05:55:42.518Z,973.66
2023-01-17T05:56:42.546Z,973.64
2023-01-17T05:57:42.492Z,973.66
2023-01-17T05:58:42.537Z,973.67
2023-01-17T05:59:42.481Z,973.63
2023-01-17T06:00:42.474Z,973.65
2023-01-17T06:01:42.444Z,973.66
2023-01-17T06:02:42.513Z,973.65
2023-01-17T06:03:42.535Z,973.59
2023-01-17T06:04:42.445Z,973.63
2023-01-17T06:05:42.415Z,973.63
2023-01-17T06:06:42.405Z,973.66
2023-01-17T06:07:42.417Z,973.65
2023-01-17T06:08:42.411Z,973.64
2023-01-17T06:09:42.368Z,973.69
2023-01-17T06:10:42.379Z,973.69
2023-01-17T06:11:42.342Z,973.73
2023-01-17T06:12:42.371Z,973.75
2023-01-17T06:13:42.621Z,973.72
2023-01-17T06:14:42.334Z,973.76
2023-01-17T06:15:42.326Z,973.77
2023-01-17T06:16:42.354Z,973.80
2023-01-17T06:17:42.292Z,973.79
2023-01-17T06:18:42.304Z,973.78
2023-01-17T06:19:42.289Z,973.78
2023-01-17T06:20:42.257Z,973.78
2023-01-17T06:21:42.248Z,973.79
2023-01-17T06:22:42.281Z,973.75
2023-01-17T06:23:42.254Z,973.77
2023-01-17T06:24:42.225Z,973.78
2023-01-17T06:25:42.244Z,973.76
2023-01-17T06:26:42.234Z,973.77
2023-01-17T06:27:42.192Z,973.77
2023-01-17T06:28:42.236Z,973.78
2023-01-17T06:29:42.166Z,973.79
2023-01-17T06:30:42.207Z,973.80
2023-01-17T06:31:42.198Z,973.77
2023-01-17T06:32:42.154Z,973.79
2023-01-17T06:33:42.138Z,973.81
2023-01-17T06:34:42.128Z,973.81
2023-01-17T06:35:42.150Z,973.85
2023-01-17T06:36:42.097Z,973.87
2023-01-17T06:37:42.203Z,973.86
2023-01-17T06:38:42.089Z,973.90
2023-01-17T06:39:42.070Z,973.93
2023-01-17T06:40:42.085Z,973.95
2023-01-17T06:41:42.046Z,973.98
2023-01-17T06:42:42.049Z,973.97
2023-01-17T06:43:42.055Z,974.00
2023-01-17T06:44:42.014Z,974.01
2023-01-17T06:45:41.995Z,974.04
2023-01-17T06:46:42.068Z,974.06
2023-01-17T06:47:41.977Z,974.08
2023-01-17T06:48:41.980Z,974.10
2023-01-17T06:49:41.960Z,974.11
2023-01-17T06:50:41.963Z,974.16
2023-01-17T06:51:43.668Z,974.18
2023-01-17T06:52:41.965Z,974.20
2023-01-17T06:53:41.947Z,974.20
2023-01-17T06:54:41.929Z,974.17
2023-01-17T06:55:41.895Z,974.23
2023-01-17T06:56:41.901Z,974.27
2023-01-17T06:57:41.930Z,974.32
2023-01-17T06:58:41.845Z,974.33
2023-01-17T06:59:41.854Z,974.31
2023-01-17T07:00:41.881Z,974.32
2023-01-17T07:01:41.957Z,974.36
2023-01-17T07:02:41.829Z,974.38
2023-01-17T07:03:41.854Z,974.35
2023-01-17T07:04:41.774Z,974.38
2023-01-17T07:05:41.784Z,974.39
2023-01-17T07:06:41.754Z,974.37
2023-01-17T07:07:41.781Z,974.40
2023-01-17T07:08:41.736Z,974.41
2023-01-17T07:09:41.726Z,974.44
2023-01-17T07:10:41.708Z,974.40
2023-01-17T07:11:41.680Z,974.43
2023-01-17T07:12:41.703Z,974.46
2023-01-17T07:13:41.666Z,974.49
2023-01-17T07:14:41.711Z,974.52
2023-01-17T07:15:41.642Z,974.52
2023-01-17T07:16:41.645Z,974.49
2023-01-17T07:17:41.712Z,974.55
2023-01-17T07:18:41.630Z,974.57
2023-01-17T07:19:41.621Z,974.58
2023-01-17T07:20:41.622Z,974.60
2023-01-17T07:21:41.577Z,974.61
2023-01-17T07:22:41.601Z,974.61
2023-01-17T07:23:41.573Z,974.62
2023-01-17T07:24:41.579Z,974.65
2023-01-17T07:25:41.538Z,974.64
2023-01-17T07:26:41.551Z,974.66
2023-01-17T07:27:41.552Z,974.67
2023-01-17T07:28:41.528Z,974.68
2023-01-17T07:29:41.532Z,974.71
2023-01-17T07:30:41.523Z,974.70
2023-01-17T07:31:41.524Z,974.70
2023-01-17T07:32:41.491Z,974.74
2023-01-17T07:33:41.487Z,974.74
2023-01-17T07:34:41.495Z,974.77
2023-01-17T07:35:41.472Z,974.77
2023-01-17T07:36:41.455Z,974.70
2023-01-17T07:37:41.413Z,974.75
2023-01-17T07:38:41.434Z,974.81
2023-01-17T07:39:41.403Z,974.83
2023-01-17T07:40:42.371Z,974.80
2023-01-17T07:41:41.546Z,974.79
2023-01-17T07:42:41.417Z,974.80
2023-01-17T07:43:41.648Z,974.78
2023-01-17T07:44:41.478Z,974.79
2023-01-17T07:45:41.396Z,974.78
2023-01-17T07:46:41.398Z,974.78
2023-01-17T07:47:41.356Z,974.80
2023-01-17T07:48:41.382Z,974.79
2023-01-17T07:49:41.336Z,974.81
2023-01-17T07:50:41.293Z,974.81
2023-01-17T07:51:41.447Z,974.78
2023-01-17T07:52:41.285Z,974.80
2023-01-17T07:53:41.248Z,974.82
2023-01-17T07:54:41.339Z,974.83
2023-01-17T07:55:41.229Z,974.82
2023-01-17T07:56:41.235Z,974.82
2023-01-17T07:57:41.294Z,974.81
2023-01-17T07:58:41.233Z,974.82
2023-01-17T07:59:41.235Z,974.81
2023-01-17T08:00:41.349Z,974.84
2023-01-17T08:01:41.330Z,974.83
2023-01-17T08:02:41.202Z,974.85
2023-01-17T08:03:41.220Z,974.87
2023-01-17T08:04:41.551Z,974.89
2023-01-17T08:05:41.148Z,974.88
2023-01-17T08:06:41.130Z,974.87
2023-01-17T08:07:41.115Z,974.82
2023-01-17T08:08:41.148Z,974.82
2023-01-17T08:09:41.087Z,974.78
2023-01-17T08:10:41.123Z,974.77
2023-01-17T08:11:41.070Z,974.76
2023-01-17T08:12:41.067Z,974.77
2023-01-17T08:13:41.048Z,974.78
2023-01-17T08:14:41.055Z,974.72
2023-01-17T08:15:41.056Z,974.80
2023-01-17T08:16:41.123Z,974.80
2023-01-17T08:17:41.031Z,974.79
2023-01-17T08:18:41.055Z,974.82
2023-01-17T08:19:41.007Z,974.78
2023-01-17T08:20:41.016Z,974.78
2023-01-17T08:21:41.022Z,974.76
2023-01-17T08:22:41.000Z,974.75
2023-01-17T08:23:40.960Z,974.74
2023-01-17T08:24:40.943Z,974.77
2023-01-17T08:25:40.946Z,974.76
2023-01-17T08:26:40.932Z,974.76
2023-01-17T08:27:40.932Z,974.78
2023-01-17T08:28:40.905Z,974.80
2023-01-17T08:29:40.896Z,974.79
2023-01-17T08:30:40.901Z,974.78
2023-01-17T08:31:40.971Z,974.77
2023-01-17T08:32:40.938Z,974.77
2023-01-17T08:33:40.859Z,974.80
2023-01-17T08:34:40.846Z,974.77
2023-01-17T08:35:40.844Z,974.79
2023-01-17T08:36:40.826Z,974.80
2023-01-17T08:37:40.878Z,974.82
2023-01-17T08:38:40.809Z,974.83
2023-01-17T08:39:40.812Z,974.85
2023-01-17T08:40:41.150Z,974.85
2023-01-17T08:41:40.827Z,974.87
2023-01-17T08:42:40.755Z,974.87
2023-01-17T08:43:40.767Z,974.87
2023-01-17T08:44:40.739Z,974.86
2023-01-17T08:45:40.854Z,974.86
2023-01-17T08:46:40.728Z,974.85
2023-01-17T08:47:40.750Z,974.87
2023-01-17T08:48:40.712Z,974.89
2023-01-17T08:49:40.733Z,974.88
2023-01-17T08:50:40.670Z,974.88
2023-01-17T08:51:40.701Z,974.89
2023-01-17T08:52:40.666Z,974.80
2023-01-17T08:53:40.734Z,974.92
2023-01-17T08:54:40.647Z,974.96
2023-01-17T08:55:40.760Z,974.97
2023-01-17T08:56:40.641Z,974.98
2023-01-17T08:57:40.668Z,974.98
2023-01-17T08:58:40.612Z,975.01
2023-01-17T08:59:40.593Z,975.02
2023-01-17T09:00:40.628Z,975.04
2023-01-17T09:01:40.876Z,975.04
2023-01-17T09:02:40.598Z,975.05
2023-01-17T09:03:41.026Z,975.08
2023-01-17T09:04:40.586Z,975.06
2023-01-17T09:05:40.534Z,975.10
2023-01-17T09:06:40.540Z,975.10
2023-01-17T09:07:40.538Z,975.10
2023-01-17T09:08:40.529Z,975.08
2023-01-17T09:09:40.526Z,975.11
2023-01-17T09:10:40.551Z,975.11
2023-01-17T09:11:40.471Z,975.12
2023-01-17T09:12:40.578Z,975.13
2023-01-17T09:13:40.493Z,975.15
2023-01-17T09:14:40.459Z,975.15
2023-01-17T09:15:40.470Z,975.16
2023-01-17T09:16:40.461Z,975.16
2023-01-17T09:17:40.406Z,975.16
2023-01-17T09:18:40.432Z,975.16
2023-01-17T09:19:40.403Z,975.15
2023-01-17T09:20:40.379Z,975.19
2023-01-17T09:21:40.415Z,975.18
2023-01-17T09:22:40.358Z,975.13
2023-01-17T09:23:40.367Z,975.16
2023-01-17T09:24:40.375Z,975.17
2023-01-17T09:25:40.355Z,975.21
2023-01-17T09:26:40.326Z,975.23
2023-01-17T09:27:40.352Z,975.23
2023-01-17T09:28:40.334Z,975.23
2023-01-17T09:29:40.318Z,975.26
2023-01-17T09:30:40.329Z,975.22
2023-01-17T09:31:40.260Z,975.27
2023-01-17T09:32:40.270Z,975.25
2023-01-17T09:33:40.281Z,975.27
2023-01-17T09:34:40.252Z,975.29
2023-01-17T09:35:40.223Z,975.27
2023-01-17T09:36:40.252Z,975.27
2023-01-17T09:37:40.233Z,975.31
2023-01-17T09:38:40.206Z,975.31
2023-01-17T09:39:40.209Z,975.30
2023-01-17T09:40:40.194Z,975.34
2023-01-17T09:41:40.184Z,975.34
2023-01-17T09:42:40.187Z,975.36
2023-01-17T09:43:41.069Z,975.38
2023-01-17T09:44:40.154Z,975.37
2023-01-17T09:45:40.165Z,975.39
2023-01-17T09:46:40.109Z,975.40
2023-01-17T09:47:40.113Z,975.40
2023-01-17T09:48:40.114Z,975.41
2023-01-17T09:49:40.105Z,975.43
2023-01-17T09:50:40.057Z,975.43
2023-01-17T09:51:40.096Z,975.42
2023-01-17T09:52:40.084Z,975.43
2023-01-17T09:53:40.093Z,975.43
2023-01-17T09:54:40.088Z,975.44
2023-01-17T09:55:40.046Z,975.43
2023-01-17T09:56:40.011Z,975.39
2023-01-17T09:57:40.019Z,975.43
2023-01-17T09:58:39.979Z,975.44
2023-01-17T09:59:40.825Z,975.44
2023-01-17T10:00:40.018Z,975.39
2023-01-17T10:01:40.126Z,975.43
2023-01-17T10:02:40.024Z,975.43
2023-01-17T10:03:40.032Z,975.41
2023-01-17T10:04:39.942Z,975.43
2023-01-17T10:05:39.946Z,975.42
2023-01-17T10:06:39.907Z,975.43
2023-01-17T10:07:39.897Z,975.42
2023-01-17T10:08:39.885Z,975.42
2023-01-17T10:09:39.896Z,975.44
2023-01-17T10:10:39.896Z,975.43
2023-01-17T10:11:39.848Z,975.42
2023-01-17T10:12:39.861Z,975.40
2023-01-17T10:13:39.838Z,975.42
2023-01-17T10:14:39.812Z,975.41
2023-01-17T10:15:39.813Z,975.43
2023-01-17T10:16:39.842Z,975.43
2023-01-17T10:17:39.793Z,975.43
2023-01-17T10:18:39.800Z,975.46
2023-01-17T10:19:39.789Z,975.47
2023-01-17T10:20:40.179Z,975.48
2023-01-17T10:21:39.794Z,975.48
2023-01-17T10:22:39.726Z,975.47
2023-01-17T10:23:39.759Z,975.50
2023-01-17T10:24:39.733Z,975.49
2023-01-17T10:25:39.745Z,975.52
2023-01-17T10:26:39.691Z,975.51
2023-01-17T10:27:39.684Z,975.53
2023-01-17T10:28:39.683Z,975.56
2023-01-17T10:29:39.673Z,975.58
2023-01-17T10:30:39.727Z,975.57
2023-01-17T10:31:39.709Z,975.58
2023-01-17T10:32:39.634Z,975.57
2023-01-17T10:33:39.644Z,975.58
2023-01-17T10:34:39.622Z,975.59
2023-01-17T10:35:39.613Z,975.61
2023-01-17T10:36:39.642Z,975.61
2023-01-17T10:37:39.587Z,975.62
2023-01-17T10:38:41.273Z,975.63
2023-01-17T10:39:39.584Z,975.63
2023-01-17T10:40:39.557Z,975.64
2023-01-17T10:41:39.564Z,975.64
2023-01-17T10:42:39.538Z,975.65
2023-01-17T10:43:39.523Z,975.64
2023-01-17T10:44:39.532Z,975.64
2023-01-17T10:45:39.516Z,975.65
2023-01-17T10:46:39.505Z,975.62
2023-01-17T10:47:39.511Z,975.62
2023-01-17T10:48:39.485Z,975.60
2023-01-17T10:49:39.478Z,975.61
2023-01-17T10:50:39.468Z,975.60
2023-01-17T10:51:39.450Z,975.60
2023-01-17T10:52:39.431Z,975.58
2023-01-17T10:53:39.431Z,975.57
2023-01-17T10:54:39.439Z,975.58
2023-01-17T10:55:39.409Z,975.56
2023-01-17T10:56:39.385Z,975.55
2023-01-17T10:57:39.408Z,975.56
2023-01-17T10:58:39.407Z,975.55
2023-01-17T10:59:39.365Z,975.53
2023-01-17T11:00:39.350Z,975.50
2023-01-17T11:01:39.602Z,975.49
2023-01-17T11:02:39.397Z,975.47
2023-01-17T11:03:39.342Z,975.49
2023-01-17T11:04:39.311Z,975.48
2023-01-17T11:05:39.314Z,975.48
2023-01-17T11:06:53.181Z,975.49
2023-01-17T11:07:40.136Z,975.49
2023-01-17T11:08:39.449Z,975.47
2023-01-17T11:09:39.262Z,975.48
2023-01-17T11:10:39.245Z,975.49
2023-01-17T11:11:39.244Z,975.48
2023-01-17T11:12:39.247Z,975.48
2023-01-17T11:13:39.242Z,975.46
2023-01-17T11:14:39.207Z,975.46
2023-01-17T11:15:39.300Z,975.42
2023-01-17T11:16:39.203Z,975.44
2023-01-17T11:17:39.188Z,975.43
2023-01-17T11:18:39.189Z,975.43
2023-01-17T11:19:39.191Z,975.43
2023-01-17T11:20:39.165Z,975.42
2023-01-17T11:21:39.163Z,975.46
2023-01-17T11:22:40.064Z,975.41
2023-01-17T11:23:39.145Z,975.42
2023-01-17T11:24:39.188Z,975.40
2023-01-17T11:25:39.109Z,975.39
2023-01-17T11:26:39.090Z,975.39
2023-01-17T11:27:39.084Z,975.39
2023-01-17T11:28:39.085Z,975.38
2023-01-17T11:29:39.123Z,975.38
2023-01-17T11:30:39.075Z,975.35
2023-01-17T11:31:39.073Z,975.33
2023-01-17T11:32:39.025Z,975.31
2023-01-17T11:33:39.049Z,975.30
2023-01-17T11:34:39.019Z,975.27
2023-01-17T11:35:39.007Z,975.29
2023-01-17T11:36:38.990Z,975.27
2023-01-17T11:37:39.000Z,975.29
2023-01-17T11:38:38.971Z,975.29
2023-01-17T11:39:38.977Z,975.28
2023-01-17T11:40:38.976Z,975.29
2023-01-17T11:41:38.971Z,975.29
2023-01-17T11:42:38.937Z,975.31
2023-01-17T11:43:38.939Z,975.30
2023-01-17T11:44:38.945Z,975.31
2023-01-17T11:45:38.913Z,975.32
2023-01-17T11:46:38.992Z,975.33
2023-01-17T11:47:38.885Z,975.33
2023-01-17T11:48:38.911Z,975.34
2023-01-17T11:49:38.895Z,975.34
2023-01-17T11:50:38.881Z,975.34
2023-01-17T11:51:38.860Z,975.33
2023-01-17T11:52:38.842Z,975.34
2023-01-17T11:53:38.834Z,975.33
2023-01-17T11:54:38.832Z,975.32
2023-01-17T11:55:38.801Z,975.33
2023-01-17T11:56:38.804Z,975.32
2023-01-17T11:57:38.810Z,975.32
2023-01-17T11:58:38.787Z,975.34
2023-01-17T11:59:38.828Z,975.32
2023-01-17T12:00:38.744Z,975.32
2023-01-17T12:01:38.776Z,975.29
2023-01-17T12:02:38.729Z,975.26
2023-01-17T12:03:38.741Z,975.31
2023-01-17T12:04:38.798Z,975.31
2023-01-17T12:05:38.741Z,975.29
2023-01-17T12:06:56.133Z,975.27
2023-01-17T12:07:38.698Z,975.27
2023-01-17T12:08:38.689Z,975.23
2023-01-17T12:09:38.672Z,975.24
2023-01-17T12:10:38.651Z,975.23
2023-01-17T12:11:38.667Z,975.20
2023-01-17T12:12:38.655Z,975.21
2023-01-17T12:13:38.625Z,975.20
2023-01-17T12:14:38.625Z,975.20
2023-01-17T12:15:38.690Z,975.21
2023-01-17T12:16:38.593Z,975.21
2023-01-17T12:17:38.591Z,975.21
2023-01-17T12:18:38.575Z,975.21
2023-01-17T12:19:38.558Z,975.21
2023-01-17T12:20:38.553Z,975.18
2023-01-17T12:21:38.551Z,975.17
2023-01-17T12:22:38.526Z,975.17
2023-01-17T12:23:38.538Z,975.14
2023-01-17T12:24:38.498Z,975.14
2023-01-17T12:25:38.502Z,975.13
2023-01-17T12:26:38.484Z,975.13
2023-01-17T12:27:38.504Z,975.13
2023-01-17T12:28:38.499Z,975.14